EW0076 Weather Reports


time (UTC)temp
C
wind
direction
speed
KPH
gust
KPH
rain 1hr
cm
rain 24hr
cm
rain mn
cm
humidity
%
barometer
mb
20200229104534 8 32 1.6 6.4 0.00 0.00 0.00 79 1022.7
20200229103021 8 31 1.6 6.4 0.00 0.00 0.00 76 1022.9
20200229101626 9 45 0.0 3.2 0.00 0.00 0.00 71 1023.3
20200229100151 9 117 0.0 3.2 0.00 0.00 0.00 60 1023.3
20200229094714 10 138 0.0 3.2 0.00 0.00 0.00 47 1023.2
20200229093150 10 180 0.0 6.4 0.00 0.00 0.00 45 1023.4
20200229091602 10 155 0.0 4.8 0.00 0.00 0.00 45 1023.6
20200229090131 11 77 0.0 1.6 0.00 0.00 0.00 47 1023.7
20200229084646 11 77 0.0 1.6 0.00 0.00 0.00 53 1023.5
20200229083115 11 64 1.6 3.2 0.00 0.00 0.00 56 1023.9
20200229081635 11 51 0.0 3.2 0.00 0.00 0.00 57 1024.5
20200229080128 11 51 1.6 6.4 0.00 0.00 0.00 56 1024.8
20200229074538 11 14 1.6 8.0 0.00 0.00 0.00 55 1024.9
20200229073050 12 35 4.8 9.7 0.00 0.00 0.00 52 1025.0
20200229071543 12 39 6.4 16.1 0.00 0.00 0.00 45 1025.1
20200229070026 13 32 3.2 9.7 0.00 0.00 0.00 37 1025.5
20200229064544 13 22 3.2 9.7 0.00 0.00 0.00 36 1025.6
20200229063118 13 24 3.2 9.7 0.00 0.00 0.00 36 1025.9
20200229061517 13 24 1.6 9.7 0.00 0.00 0.00 35 1026.1
20200229060035 13 11 3.2 8.0 0.00 0.00 0.00 35 1026.1
20200229054518 13 19 1.6 9.7 0.00 0.00 0.00 35 1026.2
20200229053013 13 5 0.0 3.2 0.00 0.00 0.00 34 1026.2
20200229051520 14 68 3.2 9.7 0.00 0.00 0.00 34 1026.3
20200229050014 14 24 1.6 6.4 0.00 0.00 0.00 34 1026.4
20200229044543 15 51 0.0 4.8 0.00 0.00 0.00 33 1026.5
20200229043019 15 44 1.6 11.3 0.00 0.00 0.00 32 1026.4
20200229041510 15 86 1.6 8.0 0.00 0.00 0.00 32 1026.5
20200229040026 15 11 4.8 14.5 0.00 0.00 0.00 32 1026.6
20200229034509 15 40 1.6 8.0 0.00 0.00 0.00 32 1026.5
20200229033008 15 86 6.4 14.5 0.00 0.00 0.00 31 1026.6
20200229031525 16 51 3.2 8.0 0.00 0.00 0.00 30 1026.5
20200229030017 16 42 0.0 4.8 0.00 0.00 0.00 28 1026.4
20200229024507 16 26 0.0 3.2 0.00 0.00 0.00 27 1026.2
20200229023027 16 50 1.6 4.8 0.00 0.00 0.00 27 1026.1
20200229021508 16 86 0.0 3.2 0.00 0.00 0.00 26 1025.8
20200229020019 17 92 3.2 11.3 0.00 0.00 0.00 25 1025.7
20200229014504 17 94 3.2 11.3 0.00 0.00 0.00 25 1025.5
20200229013004 17 120 0.0 6.4 0.00 0.00 0.00 25 1025.4
20200229011509 18 92 6.4 16.1 0.00 0.00 0.00 24 1025.3
20200229010008 18 86 9.7 19.3 0.00 0.00 0.00 23 1025.3
20200229004503 18 69 8.0 14.5 0.00 0.00 0.00 23 1025.4
20200229003003 18 92 4.8 14.5 0.00 0.00 0.00 23 1025.2
20200229001515 19 96 9.7 20.9 0.00 0.00 0.00 22 1025.2
20200229000202 20 98 8.0 24.1 0.00 0.00 0.00 21 1025.2
20200228233218 20 96 6.4 22.5 0.00 0.00 0.00 21 1025.3
20200228231634 20 117 8.0 17.7 0.00 0.00 0.00 21 1025.3
20200228230122 20 101 9.7 20.9 0.00 0.00 0.00 21 1025.3
20200228224753 20 89 6.4 16.1 0.00 0.00 0.00 21 1025.2
20200228223235 20 78 9.7 25.7 0.00 0.00 0.00 21 1025.2
20200228221659 21 71 8.0 24.1 0.00 0.00 0.00 21 1025.1
20200228220135 20 88 9.7 24.1 0.00 0.00 0.00 21 1025.2
20200228214611 20 92 9.7 22.5 0.00 0.00 0.00 21 1025.5
20200228213304 20 76 8.0 22.5 0.00 0.00 0.00 21 1025.5
20200228211619 20 5 9.7 24.1 0.00 0.00 0.00 21 1025.5
20200228210101 20 5 11.3 24.1 0.00 0.00 0.00 21 1025.7
20200228204632 20 56 9.7 22.5 0.00 0.00 0.00 21 1025.9
20200228203055 20 96 11.3 16.1 0.00 0.00 0.00 21 1026.2
20200228201633 20 107 11.3 20.9 0.00 0.00 0.00 21 1026.2
20200228200056 20 110 8.0 17.7 0.00 0.00 0.00 21 1026.6
20200228194615 19 96 11.3 20.9 0.00 0.00 0.00 21 1026.9
20200228193053 19 62 8.0 19.3 0.00 0.00 0.00 21 1027.2
20200228191635 19 99 14.5 25.7 0.00 0.00 0.00 21 1027.5
20200228190112 19 133 14.5 30.6 0.00 0.00 0.00 22 1027.9
20200228184604 19 115 11.3 24.1 0.00 0.00 0.00 22 1028.2
20200228183036 19 115 8.0 20.9 0.00 0.00 0.00 21 1028.4
20200228181530 18 344 9.7 22.5 0.00 0.00 0.00 22 1028.8
20200228180121 18 12 9.7 25.7 0.00 0.00 0.00 22 1029.1
20200228174559 18 32 8.0 20.9 0.00 0.00 0.00 23 1029.1
20200228173030 17 32 4.8 17.7 0.00 0.00 0.00 24 1029.3
20200228171611 17 16 6.4 22.5 0.00 0.00 0.00 25 1029.4
20200228170029 17 121 3.2 11.3 0.00 0.00 0.00 27 1029.5
20200228164509 17 134 6.4 16.1 0.00 0.00 0.00 27 1029.8
20200228163013 16 93 6.4 12.9 0.00 0.00 0.00 28 1029.9
20200228161806 16 109 6.4 14.5 0.00 0.00 0.00 31 1030.1
20200228160234 15 341 4.8 9.7 0.00 0.00 0.00 32 1030.1
20200228154646 15 100 3.2 8.0 0.00 0.00 0.00 32 1030.0
20200228153217 15 105 1.6 6.4 0.00 0.00 0.00 32 1030.1
20200228151627 13 122 0.0 4.8 0.00 0.00 0.00 35 1029.8
20200228150059 12 125 1.6 12.9 0.00 0.00 0.00 38 1029.9
20200228144618 11 104 3.2 8.0 0.00 0.00 0.00 42 1029.7
20200228143036 10 134 1.6 3.2 0.00 0.00 0.00 44 1029.8
20200228141548 9 163 0.0 3.2 0.00 0.00 0.00 47 1029.7
20200228140024 8 163 0.0 3.2 0.00 0.00 0.00 49 1029.6
20200228134542 6 163 1.6 6.4 0.00 0.00 0.00 54 1029.3
20200228133014 6 121 0.0 3.2 0.00 0.00 0.00 53 1029.0
20200228131514 6 177 1.6 4.8 0.00 0.00 0.00 52 1028.6
20200228130010 6 101 0.0 4.8 0.00 0.00 0.00 54 1028.6
20200228124508 6 76 1.6 4.8 0.00 0.00 0.00 54 1028.6
20200228123008 6 76 3.2 6.4 0.00 0.00 0.00 52 1028.3
20200228121527 7 103 1.6 3.2 0.00 0.00 0.00 52 1028.1
20200228120005 6 46 1.6 3.2 0.00 0.00 0.00 54 1028.3
20200228114723 6 46 0.0 3.2 0.00 0.00 0.00 53 1027.9
20200228113238 7 46 1.6 3.2 0.00 0.00 0.00 50 1027.2
20200228111707 7 171 0.0 4.8 0.00 0.00 0.00 50 1027.1
20200228110154 6 44 1.6 4.8 0.00 0.00 0.00 52 1027.3